createdAt,value
2022-12-03T00:01:10.237Z,101526.59
2022-12-03T00:03:13.716Z,101526.88
2022-12-03T00:05:17.333Z,101520.94
2022-12-03T00:07:22.259Z,101508.91
2022-12-03T00:09:25.643Z,101518.44
2022-12-03T00:11:29.165Z,101526.19
2022-12-03T00:13:32.720Z,101508.03
2022-12-03T00:15:36.097Z,101505.56
2022-12-03T00:17:39.488Z,101518.00
2022-12-03T00:19:42.777Z,101510.50
2022-12-03T00:21:46.070Z,101514.50
2022-12-03T00:23:50.789Z,101508.13
2022-12-03T00:25:54.086Z,101509.44
2022-12-03T00:27:57.336Z,101509.19
2022-12-03T00:30:00.645Z,101510.00
2022-12-03T00:32:03.929Z,101507.09
2022-12-03T00:34:07.269Z,101512.66
2022-12-03T00:36:10.989Z,101504.44
2022-12-03T00:38:14.488Z,101507.03
2022-12-03T00:40:19.304Z,101501.94
2022-12-03T00:42:22.665Z,101501.94
2022-12-03T00:44:26.061Z,101498.59
2022-12-03T00:46:29.528Z,101495.03
2022-12-03T00:48:32.996Z,101497.88
2022-12-03T00:50:36.271Z,101491.03
2022-12-03T00:52:39.642Z,101498.00
2022-12-03T00:54:42.947Z,101494.59
2022-12-03T00:56:47.649Z,101495.31
2022-12-03T00:58:50.963Z,101495.22
2022-12-03T01:00:54.395Z,101499.84
2022-12-03T01:02:57.885Z,101487.34
2022-12-03T01:05:01.512Z,101495.88
2022-12-03T01:07:04.921Z,101498.47
2022-12-03T01:09:08.280Z,101498.44
2022-12-03T01:11:25.536Z,101500.53
2022-12-03T01:13:30.302Z,101497.53
2022-12-03T01:15:33.631Z,101487.91
2022-12-03T01:17:37.361Z,101497.56
2022-12-03T01:19:44.980Z,101494.09
2022-12-03T01:21:52.697Z,101487.13
2022-12-03T01:23:56.036Z,101497.56
2022-12-03T01:25:59.373Z,101500.44
2022-12-03T01:28:02.681Z,101500.75
2022-12-03T01:30:09.259Z,101504.03
2022-12-03T01:32:17.377Z,101501.53
2022-12-03T01:34:20.761Z,101474.16
2022-12-03T01:36:24.163Z,101492.63
2022-12-03T01:38:27.437Z,101504.66
2022-12-03T01:40:30.913Z,101500.97
2022-12-03T01:42:37.367Z,101509.59
2022-12-03T01:44:41.569Z,101511.28
2022-12-03T01:46:47.657Z,101505.34
2022-12-03T01:48:53.778Z,101512.06
2022-12-03T01:50:57.077Z,101503.63
2022-12-03T01:53:04.514Z,101505.53
2022-12-03T01:55:14.990Z,101504.84
2022-12-03T01:57:22.620Z,101510.00
2022-12-03T01:59:33.420Z,101516.28
2022-12-03T02:01:36.765Z,101503.06
2022-12-03T02:03:43.623Z,101505.44
2022-12-03T02:05:47.335Z,101496.28
2022-12-03T02:07:51.070Z,101501.25
2022-12-03T02:09:56.176Z,101497.69
2022-12-03T02:11:59.660Z,101501.00
2022-12-03T02:14:06.395Z,101495.22
2022-12-03T02:16:10.160Z,101499.00
2022-12-03T02:18:13.623Z,101484.69
2022-12-03T02:20:20.369Z,101501.59
2022-12-03T02:22:32.685Z,101494.63
2022-12-03T02:24:41.423Z,101499.31
2022-12-03T02:26:46.184Z,101497.13
2022-12-03T02:28:49.497Z,101491.06
2022-12-03T02:30:52.902Z,101497.72
2022-12-03T02:32:57.639Z,101488.88
2022-12-03T02:35:00.981Z,101489.44
2022-12-03T02:37:06.978Z,101449.34
2022-12-03T02:39:10.509Z,101484.97
2022-12-03T02:41:32.121Z,101488.25
2022-12-03T02:43:37.650Z,101483.09
2022-12-03T02:45:43.893Z,101485.88
2022-12-03T02:47:50.764Z,101484.50
2022-12-03T02:49:54.071Z,101483.63
2022-12-03T02:51:57.784Z,101483.91
2022-12-03T02:54:01.664Z,101477.84
2022-12-03T02:56:06.584Z,101485.72
2022-12-03T02:58:11.234Z,101477.75
2022-12-03T03:00:17.507Z,101472.69
2022-12-03T03:02:21.704Z,101486.50
2022-12-03T03:04:25.490Z,101478.66
2022-12-03T03:06:29.042Z,101474.78
2022-12-03T03:08:32.970Z,101472.97
2022-12-03T03:10:38.212Z,101451.94
2022-12-03T03:12:41.996Z,101451.75
2022-12-03T03:14:46.581Z,101471.78
2022-12-03T03:16:56.027Z,101476.94
2022-12-03T03:18:59.583Z,101479.44
2022-12-03T03:21:03.718Z,101476.88
2022-12-03T03:23:13.987Z,101475.75
2022-12-03T03:25:21.012Z,101473.31
2022-12-03T03:27:24.451Z,101469.13
2022-12-03T03:29:27.930Z,101471.19
2022-12-03T03:31:31.449Z,101469.22
2022-12-03T03:33:37.659Z,101470.41
2022-12-03T03:35:41.736Z,101430.28
2022-12-03T03:37:45.152Z,101470.22
2022-12-03T03:39:48.828Z,101470.91
2022-12-03T03:41:52.277Z,101453.44
2022-12-03T03:43:56.442Z,101471.78
2022-12-03T03:46:00.171Z,101477.66
2022-12-03T03:48:04.007Z,101468.72
2022-12-03T03:50:11.398Z,101463.66
2022-12-03T03:52:15.037Z,101465.56
2022-12-03T03:54:18.867Z,101471.19
2022-12-03T03:56:24.673Z,101461.88
2022-12-03T03:58:28.240Z,101461.69
2022-12-03T04:00:32.485Z,101460.66
2022-12-03T04:02:35.983Z,101459.19
2022-12-03T04:04:39.370Z,101464.25
2022-12-03T04:06:44.111Z,101455.50
2022-12-03T04:08:47.465Z,101455.63
2022-12-03T04:11:08.543Z,101464.53
2022-12-03T04:13:10.958Z,101461.88
2022-12-03T04:15:14.491Z,101461.75
2022-12-03T04:17:18.817Z,101458.19
2022-12-03T04:19:23.398Z,101459.09
2022-12-03T04:21:57.490Z,101452.72
2022-12-03T04:24:02.576Z,101451.94
2022-12-03T04:26:23.730Z,101456.00
2022-12-03T04:28:44.936Z,101456.59
2022-12-03T04:31:23.601Z,101461.75
2022-12-03T04:33:44.569Z,101453.31
2022-12-03T04:35:47.179Z,101444.97
2022-12-03T04:37:50.648Z,101439.75
2022-12-03T04:39:55.492Z,101447.69
2022-12-03T04:41:58.832Z,101434.47
2022-12-03T04:44:19.957Z,101442.91
2022-12-03T04:46:23.344Z,101441.31
2022-12-03T04:48:26.933Z,101440.91
2022-12-03T04:50:30.203Z,101381.16
2022-12-03T04:52:33.499Z,101446.25
2022-12-03T04:54:36.990Z,101441.22
2022-12-03T04:56:41.644Z,101446.38
2022-12-03T04:58:47.143Z,101390.19
2022-12-03T05:00:50.587Z,101441.31
2022-12-03T05:02:53.975Z,101442.00
2022-12-03T05:04:57.351Z,101433.28
2022-12-03T05:07:00.682Z,101436.06
2022-12-03T05:09:04.627Z,101435.47
2022-12-03T05:11:08.263Z,101438.03
2022-12-03T05:13:12.915Z,101432.06
2022-12-03T05:15:16.525Z,101435.03
2022-12-03T05:17:19.914Z,101441.97
2022-12-03T05:19:43.288Z,101436.81
2022-12-03T05:21:45.632Z,101378.53
2022-12-03T05:23:48.962Z,101426.72
2022-12-03T05:25:52.482Z,101437.84
2022-12-03T05:27:55.797Z,101430.31
2022-12-03T05:30:00.450Z,101432.28
2022-12-03T05:32:03.906Z,101426.88
2022-12-03T05:34:07.178Z,101432.19
2022-12-03T05:36:10.888Z,101427.94
2022-12-03T05:38:14.476Z,101433.09
2022-12-03T05:40:17.989Z,101425.53
2022-12-03T05:42:39.251Z,101418.38
2022-12-03T05:44:42.533Z,101430.00
2022-12-03T05:46:47.250Z,101436.16
2022-12-03T05:48:50.832Z,101427.50
2022-12-03T05:50:54.103Z,101414.34
2022-12-03T05:52:58.758Z,101432.00
2022-12-03T05:55:02.103Z,101418.47
2022-12-03T05:57:05.502Z,101429.03
2022-12-03T05:59:08.796Z,101428.22
2022-12-03T06:01:12.170Z,101431.16
2022-12-03T06:03:16.892Z,101427.41
2022-12-03T06:05:20.823Z,101424.63
2022-12-03T06:07:24.325Z,101423.72
2022-12-03T06:09:27.727Z,101429.66
2022-12-03T06:11:33.916Z,101424.03
2022-12-03T06:13:37.244Z,101404.94
2022-12-03T06:15:43.956Z,101422.03
2022-12-03T06:17:47.716Z,101426.09
2022-12-03T06:19:52.357Z,101429.47
2022-12-03T06:21:55.691Z,101428.38
2022-12-03T06:23:59.909Z,101425.59
2022-12-03T06:26:03.209Z,101424.81
2022-12-03T06:28:07.325Z,101426.19
2022-12-03T06:30:13.396Z,101426.06
2022-12-03T06:32:16.752Z,101425.38
2022-12-03T06:34:20.115Z,101428.06
2022-12-03T06:36:26.121Z,101428.84
2022-12-03T06:38:29.476Z,101428.78
2022-12-03T06:40:32.773Z,101431.03
2022-12-03T06:42:36.085Z,101427.34
2022-12-03T06:44:39.402Z,101404.44
2022-12-03T06:46:42.760Z,101426.84
2022-12-03T06:48:46.518Z,101430.34
2022-12-03T06:50:49.937Z,101423.50
2022-12-03T06:52:54.550Z,101429.19
2022-12-03T06:54:57.998Z,101422.91
2022-12-03T06:57:04.251Z,101431.44
2022-12-03T06:59:07.626Z,101427.50
2022-12-03T07:01:11.079Z,101432.84
2022-12-03T07:03:14.527Z,101422.13
2022-12-03T07:05:18.209Z,101424.09
2022-12-03T07:07:21.569Z,101427.28
2022-12-03T07:09:26.373Z,101361.78
2022-12-03T07:11:32.754Z,101419.44
2022-12-03T07:13:36.036Z,101430.28
2022-12-03T07:15:39.453Z,101412.22
2022-12-03T07:17:42.795Z,101430.28
2022-12-03T07:19:46.066Z,101422.03
2022-12-03T07:21:49.720Z,101427.50
2022-12-03T07:23:52.972Z,101428.06
2022-12-03T07:25:57.645Z,101432.53
2022-12-03T07:28:01.003Z,101417.25
2022-12-03T07:30:05.128Z,101430.34
2022-12-03T07:32:08.453Z,101433.22
2022-12-03T07:34:11.816Z,101435.69
2022-12-03T07:36:15.149Z,101423.22
2022-12-03T07:38:18.513Z,101428.16
2022-12-03T07:40:22.132Z,101425.00
2022-12-03T07:42:27.045Z,101421.53
2022-12-03T07:44:31.577Z,101426.09
2022-12-03T07:46:35.141Z,101428.69
2022-12-03T07:48:38.964Z,101427.91
2022-12-03T07:50:42.276Z,101427.09
2022-12-03T07:52:45.649Z,101428.69
2022-12-03T07:54:49.805Z,101424.09
2022-12-03T07:56:57.978Z,101427.50
2022-12-03T07:59:05.763Z,101434.22
2022-12-03T08:01:10.302Z,101425.00
2022-12-03T08:03:13.801Z,101429.66
2022-12-03T08:05:17.101Z,101425.38
2022-12-03T08:07:20.363Z,101429.88
2022-12-03T08:09:23.696Z,101432.75
2022-12-03T08:11:30.172Z,101427.91
2022-12-03T08:13:35.243Z,101427.78
2022-12-03T08:15:39.947Z,101423.22
2022-12-03T08:17:44.313Z,101428.06
2022-12-03T08:19:48.358Z,101421.94
2022-12-03T08:21:55.196Z,101420.84
2022-12-03T08:24:13.755Z,101434.81
2022-12-03T08:26:23.339Z,101412.28
2022-12-03T08:28:27.528Z,101436.91
2022-12-03T08:30:30.912Z,101440.28
2022-12-03T08:32:36.005Z,101438.06
2022-12-03T08:34:40.842Z,101440.34
2022-12-03T08:36:44.653Z,101437.31
2022-12-03T08:38:52.147Z,101427.38
2022-12-03T08:40:56.295Z,101439.94
2022-12-03T08:42:58.611Z,101434.06
2022-12-03T08:45:40.982Z,101406.38
2022-12-03T08:47:46.282Z,101426.75
2022-12-03T08:49:54.867Z,101431.34
2022-12-03T08:52:01.523Z,101425.84
2022-12-03T08:54:13.835Z,101425.34
2022-12-03T08:56:24.879Z,101434.25
2022-12-03T08:58:38.137Z,101430.50
2022-12-03T09:00:42.745Z,101439.69
2022-12-03T09:02:50.417Z,101425.44
2022-12-03T09:04:54.797Z,101432.81
2022-12-03T09:06:58.896Z,101407.06
2022-12-03T09:09:06.530Z,101429.41
2022-12-03T09:11:10.286Z,101425.00
2022-12-03T09:13:13.630Z,101430.22
2022-12-03T09:15:17.157Z,101430.16
2022-12-03T09:17:20.438Z,101425.59
2022-12-03T09:19:26.084Z,101424.22
2022-12-03T09:21:29.442Z,101430.66
2022-12-03T09:23:33.633Z,101428.69
2022-12-03T09:25:36.945Z,101421.31
2022-12-03T09:27:40.334Z,101425.53
2022-12-03T09:29:43.692Z,101430.81
2022-12-03T09:31:47.039Z,101418.25
2022-12-03T09:33:50.668Z,101421.22
2022-12-03T09:35:55.350Z,101424.06
2022-12-03T09:37:58.770Z,101423.63
2022-12-03T09:40:02.340Z,101377.22
2022-12-03T09:42:06.146Z,101418.19
2022-12-03T09:44:15.777Z,101394.84
2022-12-03T09:46:22.118Z,101393.06
2022-12-03T09:48:25.998Z,101421.38
2022-12-03T09:50:30.191Z,101412.84
2022-12-03T09:52:35.483Z,101415.03
2022-12-03T09:54:45.596Z,101411.44
2022-12-03T09:56:50.325Z,101409.53
2022-12-03T09:58:53.781Z,101406.88
2022-12-03T10:00:58.009Z,101402.31
2022-12-03T10:03:04.010Z,101405.69
2022-12-03T10:05:07.806Z,101407.88
2022-12-03T10:07:11.586Z,101411.81
2022-12-03T10:09:23.374Z,101405.38
2022-12-03T10:11:27.624Z,101361.56
2022-12-03T10:13:34.544Z,101404.69
2022-12-03T10:15:38.224Z,101401.50
2022-12-03T10:17:43.841Z,101402.63
2022-12-03T10:19:47.399Z,101399.31
2022-12-03T10:21:51.377Z,101386.66
2022-12-03T10:24:20.976Z,101392.41
2022-12-03T10:26:39.957Z,101397.06
2022-12-03T10:28:47.581Z,101392.88
2022-12-03T10:30:56.236Z,101380.41
2022-12-03T10:33:02.611Z,101385.25
2022-12-03T10:35:11.832Z,101376.94
2022-12-03T10:37:17.775Z,101374.63
2022-12-03T10:39:22.460Z,101371.56
2022-12-03T10:41:27.989Z,101371.56
2022-12-03T10:43:31.320Z,101367.47
2022-12-03T10:45:35.531Z,101366.09
2022-12-03T10:47:39.454Z,101355.84
2022-12-03T10:49:43.588Z,101355.16
2022-12-03T10:51:48.692Z,101333.91
2022-12-03T10:53:52.276Z,101352.97
2022-12-03T10:55:59.487Z,101344.47
2022-12-03T10:58:02.954Z,101350.34
2022-12-03T11:00:08.495Z,101352.22
2022-12-03T11:02:19.761Z,101343.78
2022-12-03T11:04:27.052Z,101334.34
2022-12-03T11:06:32.866Z,101339.19
2022-12-03T11:08:38.245Z,101343.28
2022-12-03T11:10:41.652Z,101334.25
2022-12-03T11:13:26.058Z,101330.19
2022-12-03T11:15:43.540Z,101322.63
2022-12-03T11:17:49.991Z,101325.34
2022-12-03T11:19:53.414Z,101330.69
2022-12-03T11:22:27.063Z,101321.84
2022-12-03T11:24:30.804Z,101317.69
2022-12-03T11:27:25.854Z,101310.94
2022-12-03T11:29:50.648Z,101325.34
2022-12-03T11:31:53.982Z,101311.84
2022-12-03T11:34:49.501Z,101309.25
2022-12-03T11:37:23.225Z,101308.97
2022-12-03T11:40:14.613Z,101308.06
2022-12-03T11:42:39.933Z,101310.94
2022-12-03T11:44:47.865Z,101302.81
2022-12-03T11:46:52.646Z,101297.09
2022-12-03T11:49:00.126Z,101299.44
2022-12-03T11:51:03.468Z,101286.84
2022-12-03T11:53:15.409Z,101289.22
2022-12-03T11:55:25.084Z,101293.28
2022-12-03T11:57:38.313Z,101283.16
2022-12-03T12:00:05.911Z,101276.88
2022-12-03T12:02:21.886Z,101287.06
2022-12-03T12:04:32.044Z,101282.81
2022-12-03T12:06:42.602Z,101280.59
2022-12-03T12:08:57.358Z,101281.94
2022-12-03T12:11:00.818Z,101275.94
2022-12-03T12:13:04.297Z,101274.44
2022-12-03T12:15:35.328Z,101274.88
2022-12-03T12:17:40.261Z,101270.03
2022-12-03T12:19:46.428Z,101274.28
2022-12-03T12:21:51.799Z,101271.22
2022-12-03T12:23:55.149Z,101264.03
2022-12-03T12:26:07.458Z,101268.97
2022-12-03T12:28:10.950Z,101260.44
2022-12-03T12:30:16.832Z,101260.72
2022-12-03T12:32:24.155Z,101235.75
2022-12-03T12:34:28.820Z,101246.72
2022-12-03T12:36:32.164Z,101251.22
2022-12-03T12:38:35.422Z,101245.53
2022-12-03T12:40:40.779Z,101238.41
2022-12-03T12:42:53.300Z,101243.25
2022-12-03T12:45:02.017Z,101242.25
2022-12-03T12:47:13.405Z,101235.50
2022-12-03T12:49:20.535Z,101236.31
2022-12-03T12:51:26.267Z,101237.22
2022-12-03T12:53:32.313Z,101239.47
2022-12-03T12:55:35.761Z,101235.75
2022-12-03T12:57:39.424Z,101214.03
2022-12-03T12:59:42.912Z,101236.63
2022-12-03T13:01:48.563Z,101225.75
2022-12-03T13:03:53.177Z,101226.84
2022-12-03T13:06:00.922Z,101227.75
2022-12-03T13:08:16.605Z,101227.91
2022-12-03T13:10:29.150Z,101220.66
2022-12-03T13:12:32.515Z,101217.19
2022-12-03T13:14:37.899Z,101207.22
2022-12-03T13:16:41.327Z,101224.13
2022-12-03T13:18:47.414Z,101211.97
2022-12-03T13:20:50.724Z,101214.31
2022-12-03T13:22:54.039Z,101217.13
2022-12-03T13:24:59.385Z,101227.34
2022-12-03T13:27:09.962Z,101217.03
2022-12-03T13:29:17.099Z,101222.09
2022-12-03T13:31:26.259Z,101215.13
2022-12-03T13:33:31.125Z,101212.97
2022-12-03T13:35:36.398Z,101206.66
2022-12-03T13:37:39.898Z,101192.59
2022-12-03T13:39:47.418Z,101210.78
2022-12-03T13:42:10.003Z,101147.34
2022-12-03T13:44:19.031Z,101200.66
2022-12-03T13:46:22.600Z,101198.88
2022-12-03T13:48:30.888Z,101197.13
2022-12-03T13:50:37.822Z,101201.38
2022-12-03T13:52:41.170Z,101199.50
2022-12-03T13:54:44.582Z,101181.09
2022-12-03T13:56:48.419Z,101174.72
2022-12-03T13:58:53.054Z,101191.66
2022-12-03T14:00:56.580Z,101179.81
2022-12-03T14:03:00.017Z,101190.59
2022-12-03T14:05:03.290Z,101189.69
2022-12-03T14:07:06.667Z,101184.88
2022-12-03T14:09:09.966Z,101192.31
2022-12-03T14:11:34.210Z,101188.16
2022-12-03T14:13:36.562Z,101183.38
2022-12-03T14:15:41.263Z,101191.66
2022-12-03T14:17:46.447Z,101184.88
2022-12-03T14:19:49.988Z,101187.81
2022-12-03T14:21:53.356Z,101186.31
2022-12-03T14:23:56.671Z,101187.22
2022-12-03T14:26:00.131Z,101189.09
2022-12-03T14:28:08.490Z,101187.94
2022-12-03T14:30:12.734Z,101187.34
2022-12-03T14:32:17.745Z,101184.81
2022-12-03T14:34:21.275Z,101187.50
2022-12-03T14:36:24.564Z,101181.44
2022-12-03T14:38:28.372Z,101180.38
2022-12-03T14:40:31.735Z,101189.72
2022-12-03T14:42:35.346Z,101186.88
2022-12-03T14:44:40.355Z,101183.19
2022-12-03T14:46:43.627Z,101186.16
2022-12-03T14:48:48.502Z,101188.22
2022-12-03T14:50:52.365Z,101194.47
2022-12-03T14:52:55.767Z,101192.69
2022-12-03T14:54:59.084Z,101193.28
2022-12-03T14:57:02.421Z,101189.63
2022-12-03T14:59:05.750Z,101184.47
2022-12-03T15:01:09.361Z,101181.81
2022-12-03T15:03:12.745Z,101182.16
2022-12-03T15:05:18.596Z,101180.38
2022-12-03T15:07:23.352Z,101184.63
2022-12-03T15:09:27.056Z,101184.75
2022-12-03T15:11:30.419Z,101167.28
2022-12-03T15:13:33.728Z,101181.56
2022-12-03T15:15:37.059Z,101174.31
2022-12-03T15:17:40.449Z,101172.00
2022-12-03T15:19:43.841Z,101172.00
2022-12-03T15:21:48.619Z,101177.19
2022-12-03T15:23:51.981Z,101181.38
2022-12-03T15:25:55.338Z,101179.47
2022-12-03T15:27:58.709Z,101160.59
2022-12-03T15:30:02.158Z,101175.13
2022-12-03T15:32:05.781Z,101172.72
2022-12-03T15:34:09.098Z,101181.09
2022-12-03T15:36:12.548Z,101173.88
2022-12-03T15:38:17.266Z,101178.06
2022-12-03T15:40:20.572Z,101179.47
2022-12-03T15:42:24.077Z,101183.25
2022-12-03T15:44:27.398Z,101182.41
2022-12-03T15:46:31.473Z,101166.38
2022-12-03T15:48:35.079Z,101183.41
2022-12-03T15:50:40.612Z,101175.66
2022-12-03T15:52:43.950Z,101175.22
2022-12-03T15:54:50.300Z,101168.06
2022-12-03T15:56:57.186Z,101171.13
2022-12-03T15:59:01.040Z,101174.13
2022-12-03T16:01:04.527Z,101176.22
2022-12-03T16:03:08.037Z,101166.31
2022-12-03T16:05:13.088Z,101177.72
2022-12-03T16:07:16.410Z,101175.03
2022-12-03T16:09:25.333Z,101179.28
2022-12-03T16:11:31.983Z,101176.66
2022-12-03T16:13:35.348Z,101179.28
2022-12-03T16:15:38.728Z,101180.19
2022-12-03T16:17:42.078Z,101172.25
2022-12-03T16:19:45.584Z,101174.66
2022-12-03T16:21:48.842Z,101179.47
2022-12-03T16:23:52.222Z,101182.16
2022-12-03T16:25:55.519Z,101184.56
2022-12-03T16:28:00.226Z,101169.53
2022-12-03T16:30:04.161Z,101182.16
2022-12-03T16:32:07.602Z,101182.25
2022-12-03T16:34:11.263Z,101189.91
2022-12-03T16:36:14.750Z,101182.25
2022-12-03T16:38:18.129Z,101152.88
2022-12-03T16:40:21.573Z,101181.19
2022-12-03T16:42:25.068Z,101168.16
2022-12-03T16:44:43.649Z,101174.41
2022-12-03T16:46:47.161Z,101176.28
2022-12-03T16:48:51.378Z,101174.88
2022-12-03T16:50:54.692Z,101186.25
2022-12-03T16:52:58.340Z,101167.22
2022-12-03T16:55:01.764Z,101169.41
2022-12-03T16:57:05.274Z,101159.34
2022-12-03T16:59:08.576Z,101158.50
2022-12-03T17:01:13.845Z,101176.63
2022-12-03T17:03:18.302Z,101165.53
2022-12-03T17:05:21.722Z,101168.28
2022-12-03T17:07:25.103Z,101167.22
2022-12-03T17:09:28.531Z,101168.47
2022-12-03T17:11:32.018Z,101173.09
2022-12-03T17:13:35.314Z,101159.56
2022-12-03T17:15:38.946Z,101168.72
2022-12-03T17:17:43.663Z,101175.56
2022-12-03T17:19:46.982Z,101174.59
2022-12-03T17:21:50.345Z,101156.13
2022-12-03T17:23:53.646Z,101170.13
2022-12-03T17:25:56.992Z,101165.41
2022-12-03T17:28:00.389Z,101165.66
2022-12-03T17:30:05.006Z,101161.03
2022-12-03T17:32:08.339Z,101171.47
2022-12-03T17:34:13.139Z,101160.16
2022-12-03T17:36:16.492Z,101160.72
2022-12-03T17:38:19.865Z,101165.50
2022-12-03T17:40:23.159Z,101164.34
2022-12-03T17:42:26.542Z,101156.94
2022-12-03T17:44:29.878Z,101137.44
2022-12-03T17:46:33.313Z,101153.75
2022-12-03T17:48:36.847Z,101150.28
2022-12-03T17:50:42.904Z,101151.25
2022-12-03T17:52:46.293Z,101148.59
2022-12-03T17:55:10.091Z,101149.84
2022-12-03T17:57:13.253Z,101150.09
2022-12-03T17:59:17.137Z,101150.09
2022-12-03T18:01:20.533Z,101148.06
2022-12-03T18:03:23.885Z,101140.75
2022-12-03T18:05:27.279Z,101146.38
2022-12-03T18:07:32.087Z,101146.44
2022-12-03T18:09:35.654Z,101137.81
2022-12-03T18:11:39.100Z,101136.22
2022-12-03T18:13:42.372Z,101135.25
2022-12-03T18:15:45.868Z,101142.69
2022-12-03T18:17:49.253Z,101138.91
2022-12-03T18:19:53.173Z,101137.91
2022-12-03T18:21:56.738Z,101137.00
2022-12-03T18:24:02.181Z,101131.56
2022-12-03T18:26:06.132Z,101130.31
2022-12-03T18:28:09.483Z,101125.34
2022-12-03T18:30:13.659Z,101125.78
2022-12-03T18:32:28.230Z,101127.59
2022-12-03T18:34:31.933Z,101127.66
2022-12-03T18:36:37.157Z,101129.78
2022-12-03T18:38:40.551Z,101133.34
2022-12-03T18:40:46.451Z,101114.91
2022-12-03T18:42:49.899Z,101123.31
2022-12-03T18:44:55.057Z,101124.75
2022-12-03T18:46:59.030Z,101121.97
2022-12-03T18:49:02.742Z,101122.66
2022-12-03T18:51:10.385Z,101116.59
2022-12-03T18:53:15.683Z,101093.38
2022-12-03T18:55:20.560Z,101120.38
2022-12-03T18:57:25.455Z,101116.09
2022-12-03T18:59:28.995Z,101115.28
2022-12-03T19:01:33.596Z,101104.59
2022-12-03T19:03:36.988Z,101106.75
2022-12-03T19:05:40.346Z,101114.75
2022-12-03T19:07:44.230Z,101120.16
2022-12-03T19:09:47.672Z,101116.34
2022-12-03T19:11:51.095Z,101107.78
2022-12-03T19:13:57.154Z,101109.16
2022-12-03T19:16:02.935Z,101114.50
2022-12-03T19:18:07.442Z,101119.66
2022-12-03T19:20:12.757Z,101112.41
2022-12-03T19:22:16.035Z,101117.03
2022-12-03T19:24:26.519Z,101121.25
2022-12-03T19:26:29.881Z,101130.59
2022-12-03T19:28:33.809Z,101124.78
2022-12-03T19:30:38.496Z,101125.06
2022-12-03T19:32:41.787Z,101116.53
2022-12-03T19:34:45.244Z,101126.75
2022-12-03T19:36:48.719Z,101121.78
2022-12-03T19:38:56.907Z,101121.59
2022-12-03T19:41:02.840Z,101122.13
2022-12-03T19:43:06.188Z,101125.50
2022-12-03T19:45:10.921Z,101122.31
2022-12-03T19:47:15.594Z,101117.50
2022-12-03T19:49:20.964Z,101116.63
2022-12-03T19:51:34.588Z,101119.13
2022-12-03T19:53:39.757Z,101130.97
2022-12-03T19:55:43.036Z,101117.94
2022-12-03T19:57:46.439Z,101125.88
2022-12-03T19:59:49.802Z,101125.69
2022-12-03T20:01:53.364Z,101124.31
2022-12-03T20:04:00.006Z,101124.44
2022-12-03T20:06:03.367Z,101129.16
2022-12-03T20:08:08.305Z,101123.53
2022-12-03T20:10:11.900Z,101125.69
2022-12-03T20:12:15.239Z,101125.06
2022-12-03T20:14:18.768Z,101120.56
2022-12-03T20:16:22.465Z,101121.41
2022-12-03T20:18:25.964Z,101122.22
2022-12-03T20:20:30.804Z,101103.50
2022-12-03T20:22:34.209Z,101127.00
2022-12-03T20:24:37.564Z,101120.09
2022-12-03T20:26:40.946Z,101128.13
2022-12-03T20:28:45.292Z,101112.47
2022-12-03T20:30:58.379Z,101116.63
2022-12-03T20:33:01.779Z,101104.75
2022-12-03T20:35:06.039Z,101095.38
2022-12-03T20:37:10.877Z,101113.09
2022-12-03T20:39:14.161Z,101113.38
2022-12-03T20:41:19.418Z,101107.50
2022-12-03T20:43:23.017Z,101117.63
2022-12-03T20:45:27.228Z,101112.56
2022-12-03T20:47:30.759Z,101110.53
2022-12-03T20:49:34.167Z,101105.81
2022-12-03T20:51:37.690Z,101104.09
2022-12-03T20:53:43.250Z,101103.22
2022-12-03T20:55:46.607Z,101099.50
2022-12-03T20:57:50.736Z,101106.84
2022-12-03T20:59:55.734Z,101109.03
2022-12-03T21:01:59.467Z,101091.84
2022-12-03T21:04:04.627Z,101102.53
2022-12-03T21:06:08.810Z,101104.22
2022-12-03T21:08:12.772Z,101100.84
2022-12-03T21:10:33.015Z,101105.09
2022-12-03T21:12:38.602Z,101099.69
2022-12-03T21:14:42.059Z,101040.59
2022-12-03T21:19:12.580Z,101088.16
2022-12-03T21:21:18.581Z,101091.88
2022-12-03T21:23:22.094Z,101093.56
2022-12-03T21:25:26.848Z,101093.56
2022-12-03T21:27:32.026Z,101091.50
2022-12-03T21:29:35.383Z,101097.94
2022-12-03T21:31:41.474Z,101094.53
2022-12-03T21:33:45.224Z,101081.53
2022-12-03T21:35:48.663Z,101095.88
2022-12-03T21:37:52.635Z,101088.75
2022-12-03T21:39:56.127Z,101093.91
2022-12-03T21:42:25.954Z,101100.31
2022-12-03T21:44:24.449Z,101099.88
2022-12-03T21:47:10.255Z,101061.50
2022-12-03T21:48:51.813Z,101096.66
2022-12-03T21:51:03.468Z,101093.50
2022-12-03T21:53:07.021Z,101103.06
2022-12-03T21:55:11.495Z,101080.72
2022-12-03T21:57:16.119Z,101097.19
2022-12-03T21:59:19.410Z,101099.94
2022-12-03T22:01:24.893Z,101091.97
2022-12-03T22:03:28.366Z,101101.03
2022-12-03T22:05:31.772Z,101094.91
2022-12-03T22:07:35.454Z,101085.00
2022-12-03T22:09:38.891Z,101088.13
2022-12-03T22:11:42.326Z,101077.53
2022-12-03T22:13:47.520Z,101089.28
2022-12-03T22:15:50.892Z,101092.41
2022-12-03T22:17:54.208Z,101088.66
2022-12-03T22:19:57.682Z,101090.53
2022-12-03T22:22:01.010Z,101088.00
2022-12-03T22:24:04.620Z,101085.78
2022-12-03T22:26:09.762Z,101087.56
2022-12-03T22:28:13.059Z,101082.78
2022-12-03T22:30:17.980Z,101079.56
2022-12-03T22:32:21.365Z,101064.47
2022-12-03T22:34:24.709Z,101068.53
2022-12-03T22:36:28.202Z,101077.63
2022-12-03T22:38:33.142Z,101072.84
2022-12-03T22:40:39.955Z,101074.16
2022-12-03T22:42:49.354Z,101070.88
2022-12-03T22:44:54.178Z,101064.69
2022-12-03T22:46:58.910Z,101068.47
2022-12-03T22:49:07.153Z,101066.13
2022-12-03T22:51:14.058Z,101059.09
2022-12-03T22:53:17.582Z,101065.78
2022-12-03T22:55:20.907Z,101063.03
2022-12-03T22:57:24.284Z,101053.94
2022-12-03T22:59:27.721Z,101063.81
2022-12-03T23:01:33.383Z,101060.97
2022-12-03T23:03:38.632Z,101053.50
2022-12-03T23:05:42.134Z,101049.47
2022-12-03T23:07:45.619Z,101003.22
2022-12-03T23:09:49.074Z,101052.88
2022-12-03T23:11:52.359Z,101046.03
2022-12-03T23:13:55.989Z,101045.31
2022-12-03T23:15:59.392Z,101032.94
2022-12-03T23:18:02.991Z,101040.47
2022-12-03T23:20:09.404Z,101042.56
2022-12-03T23:22:12.700Z,101032.03
2022-12-03T23:24:16.059Z,101044.13
2022-12-03T23:26:19.552Z,101030.69
2022-12-03T23:28:22.859Z,101033.09
2022-12-03T23:30:26.238Z,101034.56
2022-12-03T23:32:29.613Z,101038.72
2022-12-03T23:34:33.088Z,101046.09
2022-12-03T23:36:37.853Z,101043.19
2022-12-03T23:38:41.924Z,101040.94
2022-12-03T23:40:48.246Z,101046.56
2022-12-03T23:42:51.881Z,101044.34
2022-12-03T23:44:55.166Z,101041.75
2022-12-03T23:46:58.583Z,101049.44
2022-12-03T23:49:03.281Z,101052.78
2022-12-03T23:51:07.948Z,101047.19
2022-12-03T23:53:12.635Z,101045.59
2022-12-03T23:55:16.002Z,101045.78
2022-12-03T23:57:19.305Z,101046.75